createdAt,value
2023-05-14T00:00:34.330Z,88.01
2023-05-14T00:03:03.488Z,87.40
2023-05-14T00:05:30.926Z,87.22
2023-05-14T00:07:58.411Z,87.17
2023-05-14T00:10:25.899Z,87.84
2023-05-14T00:12:53.358Z,87.13
2023-05-14T00:15:20.832Z,88.31
2023-05-14T00:17:48.286Z,87.76
2023-05-14T00:20:17.065Z,87.57
2023-05-14T00:22:44.521Z,88.11
2023-05-14T00:25:11.973Z,87.16
2023-05-14T00:27:39.393Z,88.72
2023-05-14T00:30:07.683Z,87.48
2023-05-14T00:32:35.091Z,87.52
2023-05-14T00:35:04.241Z,87.10
2023-05-14T00:37:32.956Z,86.71
2023-05-14T00:40:00.434Z,87.77
2023-05-14T00:42:27.900Z,88.22
2023-05-14T00:44:55.464Z,87.20
2023-05-14T00:47:23.260Z,88.26
2023-05-14T00:49:50.906Z,88.53
2023-05-14T00:52:18.837Z,88.62
2023-05-14T00:54:48.954Z,88.41
2023-05-14T00:57:16.443Z,88.26
2023-05-14T00:59:43.953Z,88.50
2023-05-14T01:02:11.791Z,88.11
2023-05-14T01:04:39.763Z,88.86
2023-05-14T01:07:15.109Z,89.61
2023-05-14T01:09:48.356Z,89.20
2023-05-14T01:12:22.491Z,90.19
2023-05-14T01:14:57.934Z,90.56
2023-05-14T01:17:29.229Z,91.81
2023-05-14T01:19:57.726Z,91.04
2023-05-14T01:22:26.459Z,90.28
2023-05-14T01:24:53.915Z,90.14
2023-05-14T01:27:27.126Z,89.74
2023-05-14T01:30:04.213Z,89.02
2023-05-14T01:32:33.326Z,89.24
2023-05-14T01:35:02.164Z,90.74
2023-05-14T01:37:31.977Z,91.22
2023-05-14T01:40:01.068Z,90.78
2023-05-14T01:42:29.545Z,89.97
2023-05-14T01:44:57.319Z,90.00
2023-05-14T01:47:24.831Z,91.76
2023-05-14T01:49:52.219Z,92.68
2023-05-14T01:52:21.189Z,92.26
2023-05-14T01:54:49.936Z,92.54
2023-05-14T01:57:17.372Z,91.39
2023-05-14T01:59:44.771Z,92.15
2023-05-14T02:02:12.167Z,92.25
2023-05-14T02:04:39.661Z,91.37
2023-05-14T02:07:07.040Z,90.76
2023-05-14T02:09:34.642Z,90.98
2023-05-14T02:12:03.365Z,91.47
2023-05-14T02:14:31.004Z,92.01
2023-05-14T02:16:58.397Z,92.65
2023-05-14T02:19:25.838Z,93.29
2023-05-14T02:21:53.274Z,93.93
2023-05-14T02:24:20.645Z,93.10
2023-05-14T02:26:48.340Z,93.35
2023-05-14T02:29:17.027Z,93.21
2023-05-14T02:31:44.481Z,94.25
2023-05-14T02:34:11.923Z,95.38
2023-05-14T02:36:39.969Z,94.65
2023-05-14T02:39:07.353Z,96.95
2023-05-14T02:41:34.745Z,97.34
2023-05-14T02:44:02.193Z,98.05
2023-05-14T02:46:31.606Z,97.78
2023-05-14T02:48:59.126Z,96.32
2023-05-14T02:51:27.057Z,96.85
2023-05-14T02:53:54.463Z,97.75
2023-05-14T02:56:22.287Z,97.21
2023-05-14T02:58:49.652Z,97.77
2023-05-14T03:01:18.705Z,97.55
2023-05-14T03:03:48.254Z,97.96
2023-05-14T03:06:16.164Z,98.99
2023-05-14T03:08:43.586Z,98.34
2023-05-14T03:11:11.391Z,99.24
2023-05-14T03:13:38.826Z,99.04
2023-05-14T03:16:06.624Z,99.66
2023-05-14T03:18:34.806Z,100.00
2023-05-14T03:21:04.353Z,100.00
2023-05-14T03:23:34.888Z,100.00
2023-05-14T03:26:02.552Z,100.00
2023-05-14T03:28:29.997Z,100.00
2023-05-14T03:30:57.526Z,100.00
2023-05-14T03:33:25.020Z,100.00
2023-05-14T03:35:52.418Z,100.00
2023-05-14T03:38:21.171Z,100.00
2023-05-14T03:40:48.741Z,100.00
2023-05-14T03:43:16.298Z,100.00
2023-05-14T03:45:43.706Z,99.50
2023-05-14T03:48:11.176Z,98.04
2023-05-14T03:50:38.792Z,98.28
2023-05-14T03:53:06.226Z,98.96
2023-05-14T03:55:34.954Z,98.22
2023-05-14T03:58:02.724Z,97.50
2023-05-14T04:00:30.346Z,96.75
2023-05-14T04:02:57.876Z,95.69
2023-05-14T04:05:25.397Z,96.64
2023-05-14T04:07:52.846Z,95.74
2023-05-14T04:10:20.370Z,95.40
2023-05-14T04:12:49.067Z,94.84
2023-05-14T04:15:16.493Z,94.36
2023-05-14T04:17:43.969Z,95.88
2023-05-14T04:20:11.776Z,96.72
2023-05-14T04:22:39.158Z,91.77
2023-05-14T04:25:07.623Z,85.54
2023-05-14T04:27:35.252Z,80.80
2023-05-14T04:30:04.344Z,81.10
2023-05-14T04:32:31.780Z,83.77
2023-05-14T04:34:59.151Z,86.64
2023-05-14T04:37:26.818Z,88.67
2023-05-14T04:39:54.173Z,87.57
2023-05-14T04:42:21.606Z,80.86
2023-05-14T04:44:50.700Z,82.33
2023-05-14T04:47:19.709Z,80.97
2023-05-14T04:49:47.150Z,78.94
2023-05-14T04:52:14.786Z,78.88
2023-05-14T04:54:42.285Z,78.53
2023-05-14T04:57:09.721Z,79.32
2023-05-14T04:59:37.149Z,79.78
2023-05-14T05:02:04.807Z,81.10
2023-05-14T05:04:33.548Z,77.65
2023-05-14T05:07:00.995Z,78.10
2023-05-14T05:09:28.382Z,78.77
2023-05-14T05:11:55.833Z,76.18
2023-05-14T05:14:23.295Z,75.19
2023-05-14T05:16:52.170Z,71.91
2023-05-14T05:19:22.350Z,72.37
2023-05-14T05:21:55.688Z,74.02
2023-05-14T05:24:23.101Z,71.52
2023-05-14T05:26:51.842Z,70.18
2023-05-14T05:29:19.242Z,70.60
2023-05-14T05:31:46.668Z,69.38
2023-05-14T05:34:14.113Z,68.31
2023-05-14T05:36:41.694Z,67.86
2023-05-14T05:39:10.437Z,67.22
2023-05-14T05:41:46.838Z,66.77
2023-05-14T05:44:14.226Z,68.42
2023-05-14T05:46:41.754Z,68.21
2023-05-14T05:49:09.188Z,69.74
2023-05-14T05:51:36.568Z,68.79
2023-05-14T05:54:04.105Z,68.49
2023-05-14T05:56:32.896Z,68.44
2023-05-14T05:59:00.474Z,69.23
2023-05-14T06:01:27.899Z,69.09
2023-05-14T06:03:55.253Z,67.99
2023-05-14T06:06:22.682Z,67.51
2023-05-14T06:08:50.140Z,66.56
2023-05-14T06:11:18.095Z,67.34
2023-05-14T06:13:46.783Z,64.03
2023-05-14T06:16:14.141Z,62.84
2023-05-14T06:18:41.591Z,64.44
2023-05-14T06:21:08.973Z,64.84
2023-05-14T06:23:36.367Z,62.59
2023-05-14T06:26:03.888Z,63.88
2023-05-14T06:28:31.270Z,64.47
2023-05-14T06:30:59.969Z,65.95
2023-05-14T06:33:30.766Z,62.50
2023-05-14T06:35:59.330Z,61.29
2023-05-14T06:38:26.695Z,60.45
2023-05-14T06:40:54.106Z,58.83
2023-05-14T06:43:21.566Z,58.31
2023-05-14T06:45:49.706Z,60.08
2023-05-14T06:48:18.944Z,60.24
2023-05-14T06:50:46.512Z,58.87
2023-05-14T06:53:14.095Z,57.41
2023-05-14T06:55:41.721Z,55.27
2023-05-14T06:58:09.463Z,56.79
2023-05-14T07:00:36.995Z,55.69
2023-05-14T07:03:04.511Z,55.11
2023-05-14T07:05:33.314Z,54.37
2023-05-14T07:08:00.723Z,54.96
2023-05-14T07:10:28.201Z,54.62
2023-05-14T07:12:55.709Z,54.47
2023-05-14T07:15:23.117Z,53.88
2023-05-14T07:17:50.622Z,53.82
2023-05-14T07:20:17.998Z,53.88
2023-05-14T07:22:46.746Z,53.29
2023-05-14T07:25:14.208Z,53.35
2023-05-14T07:27:41.595Z,53.85
2023-05-14T07:30:09.633Z,52.83
2023-05-14T07:32:37.112Z,55.32
2023-05-14T07:35:05.476Z,52.92
2023-05-14T07:37:32.909Z,52.57
2023-05-14T07:40:01.653Z,52.51
2023-05-14T07:42:36.620Z,52.03
2023-05-14T07:45:05.393Z,51.18
2023-05-14T07:47:33.134Z,54.12
2023-05-14T07:50:02.853Z,53.48
2023-05-14T07:52:30.251Z,53.51
2023-05-14T07:54:57.660Z,53.39
2023-05-14T07:57:26.367Z,51.46
2023-05-14T07:59:53.923Z,51.95
2023-05-14T08:02:21.613Z,51.43
2023-05-14T08:04:49.075Z,50.67
2023-05-14T08:07:16.500Z,52.55
2023-05-14T08:09:43.926Z,52.07
2023-05-14T08:12:13.668Z,50.09
2023-05-14T08:14:42.448Z,49.96
2023-05-14T08:17:12.636Z,48.82
2023-05-14T08:19:40.141Z,51.29
2023-05-14T08:22:07.585Z,52.09
2023-05-14T08:24:34.948Z,50.35
2023-05-14T08:27:02.433Z,50.50
2023-05-14T08:29:29.863Z,50.90
2023-05-14T08:32:00.259Z,50.51
2023-05-14T08:34:29.772Z,50.03
2023-05-14T08:36:57.232Z,48.92
2023-05-14T08:39:24.635Z,50.53
2023-05-14T08:41:52.659Z,52.12
2023-05-14T08:44:21.662Z,51.45
2023-05-14T08:46:51.120Z,50.48
2023-05-14T08:49:30.691Z,48.93
2023-05-14T08:51:58.680Z,50.15
2023-05-14T08:54:28.529Z,52.11
2023-05-14T08:56:56.553Z,53.43
2023-05-14T08:59:23.945Z,53.09
2023-05-14T09:01:55.250Z,51.62
2023-05-14T09:04:26.848Z,51.35
2023-05-14T09:06:55.679Z,48.78
2023-05-14T09:09:23.910Z,49.90
2023-05-14T09:11:53.089Z,49.72
2023-05-14T09:14:21.576Z,48.26
2023-05-14T09:16:50.362Z,47.82
2023-05-14T09:19:19.871Z,46.26
2023-05-14T09:21:50.492Z,45.92
2023-05-14T09:24:26.163Z,46.71
2023-05-14T09:26:57.662Z,47.55
2023-05-14T09:29:25.648Z,47.63
2023-05-14T09:31:53.499Z,48.69
2023-05-14T09:34:25.698Z,46.41
2023-05-14T09:36:58.231Z,47.07
2023-05-14T09:39:26.484Z,46.24
2023-05-14T09:41:54.730Z,46.26
2023-05-14T09:44:22.809Z,47.85
2023-05-14T09:46:51.428Z,46.25
2023-05-14T09:49:19.128Z,46.14
2023-05-14T09:51:46.576Z,46.79
2023-05-14T09:54:15.422Z,45.98
2023-05-14T09:56:44.986Z,45.03
2023-05-14T09:59:12.598Z,46.17
2023-05-14T10:01:43.376Z,45.29
2023-05-14T10:04:12.088Z,45.26
2023-05-14T10:06:42.054Z,44.54
2023-05-14T10:09:14.676Z,44.12
2023-05-14T10:11:45.482Z,44.67
2023-05-14T10:14:18.199Z,43.09
2023-05-14T10:16:50.006Z,42.05
2023-05-14T10:19:19.151Z,42.43
2023-05-14T10:21:51.018Z,42.75
2023-05-14T10:24:21.070Z,45.42
2023-05-14T10:26:49.354Z,43.31
2023-05-14T10:29:16.761Z,43.38
2023-05-14T10:31:48.597Z,41.91
2023-05-14T10:34:37.507Z,41.39
2023-05-14T10:37:07.216Z,42.71
2023-05-14T10:39:47.485Z,42.53
2023-05-14T10:42:18.331Z,42.07
2023-05-14T10:44:50.158Z,42.12
2023-05-14T10:47:18.230Z,42.36
2023-05-14T10:49:48.949Z,43.98
2023-05-14T10:52:19.151Z,44.28
2023-05-14T10:54:52.643Z,43.78
2023-05-14T10:57:20.761Z,41.35
2023-05-14T10:59:49.706Z,42.54
2023-05-14T11:02:23.047Z,43.58
2023-05-14T11:04:58.638Z,45.24
2023-05-14T11:07:29.329Z,44.34
2023-05-14T11:10:05.054Z,45.83
2023-05-14T11:12:33.499Z,45.40
2023-05-14T11:15:03.475Z,45.29
2023-05-14T11:17:32.824Z,44.28
2023-05-14T11:20:00.981Z,44.26
2023-05-14T11:22:28.562Z,43.79
2023-05-14T11:24:56.037Z,43.96
2023-05-14T11:27:24.858Z,43.83
2023-05-14T11:29:52.260Z,43.91
2023-05-14T11:32:21.021Z,44.47
2023-05-14T11:34:48.646Z,42.88
2023-05-14T11:37:17.378Z,41.21
2023-05-14T11:39:49.657Z,43.28
2023-05-14T11:42:19.421Z,42.93
2023-05-14T11:44:53.834Z,41.34
2023-05-14T11:47:22.737Z,42.72
2023-05-14T11:49:50.491Z,42.64
2023-05-14T11:52:21.673Z,42.46
2023-05-14T11:54:50.708Z,41.47
2023-05-14T11:57:21.462Z,40.14
2023-05-14T11:59:56.553Z,41.45
2023-05-14T12:02:24.323Z,40.85
2023-05-14T12:04:52.961Z,42.75
2023-05-14T12:07:20.753Z,41.58
2023-05-14T12:09:50.102Z,40.54
2023-05-14T12:12:19.960Z,41.06
2023-05-14T12:14:48.084Z,40.27
2023-05-14T12:17:18.462Z,41.55
2023-05-14T12:19:48.366Z,41.72
2023-05-14T12:22:18.036Z,40.45
2023-05-14T12:24:53.847Z,40.89
2023-05-14T12:27:23.160Z,44.48
2023-05-14T12:29:53.274Z,39.56
2023-05-14T12:32:22.083Z,39.97
2023-05-14T12:34:49.500Z,40.21
2023-05-14T12:37:18.344Z,38.76
2023-05-14T12:39:45.762Z,40.34
2023-05-14T12:42:13.131Z,38.89
2023-05-14T12:44:40.540Z,37.30
2023-05-14T12:47:08.003Z,37.87
2023-05-14T12:49:37.061Z,38.73
2023-05-14T12:52:22.692Z,39.74
2023-05-14T12:54:52.691Z,39.53
2023-05-14T12:57:20.102Z,38.25
2023-05-14T12:59:52.172Z,37.58
2023-05-14T13:02:19.591Z,38.76
2023-05-14T13:04:48.408Z,37.77
2023-05-14T13:07:16.276Z,40.19
2023-05-14T13:09:43.641Z,41.32
2023-05-14T13:12:11.009Z,42.81
2023-05-14T13:14:38.470Z,41.51
2023-05-14T13:17:07.044Z,41.26
2023-05-14T13:19:34.520Z,42.01
2023-05-14T13:22:03.269Z,42.41
2023-05-14T13:24:30.956Z,42.94
2023-05-14T13:26:58.397Z,43.70
2023-05-14T13:29:25.793Z,42.75
2023-05-14T13:31:53.664Z,42.42
2023-05-14T13:34:21.080Z,43.14
2023-05-14T13:36:49.779Z,42.23
2023-05-14T13:39:22.472Z,43.31
2023-05-14T13:41:50.720Z,42.58
2023-05-14T13:44:18.144Z,42.17
2023-05-14T13:46:45.621Z,42.54
2023-05-14T13:49:13.069Z,42.67
2023-05-14T13:51:40.493Z,42.30
2023-05-14T13:54:09.167Z,42.51
2023-05-14T13:56:37.903Z,42.66
2023-05-14T13:59:05.894Z,42.67
2023-05-14T14:01:33.431Z,43.12
2023-05-14T14:04:00.949Z,43.19
2023-05-14T14:06:28.409Z,42.81
2023-05-14T14:08:55.806Z,43.14
2023-05-14T14:11:23.338Z,43.45
2023-05-14T14:13:52.033Z,42.69
2023-05-14T14:16:19.458Z,42.50
2023-05-14T14:18:46.960Z,42.69
2023-05-14T14:21:17.790Z,42.63
2023-05-14T14:23:45.306Z,44.59
2023-05-14T14:26:12.746Z,44.40
2023-05-14T14:28:40.858Z,44.64
2023-05-14T14:31:09.607Z,44.09
2023-05-14T14:33:37.045Z,44.63
2023-05-14T14:36:04.942Z,44.19
2023-05-14T14:38:32.396Z,44.59
2023-05-14T14:40:59.936Z,45.18
2023-05-14T14:43:27.365Z,44.80
2023-05-14T14:45:54.957Z,44.96
2023-05-14T14:48:30.831Z,44.78
2023-05-14T14:50:58.707Z,44.54
2023-05-14T14:53:26.344Z,45.60
2023-05-14T14:55:54.269Z,45.34
2023-05-14T14:58:22.127Z,44.92
2023-05-14T15:00:51.019Z,44.80
2023-05-14T15:03:18.952Z,44.32
2023-05-14T15:05:48.004Z,44.28
2023-05-14T15:08:15.634Z,44.52
2023-05-14T15:10:43.126Z,45.32
2023-05-14T15:13:11.284Z,45.48
2023-05-14T15:15:38.782Z,45.78
2023-05-14T15:18:06.477Z,45.96
2023-05-14T15:20:33.942Z,45.86
2023-05-14T15:23:02.710Z,46.09
2023-05-14T15:25:30.187Z,45.94
2023-05-14T15:27:57.682Z,46.15
2023-05-14T15:30:25.021Z,45.77
2023-05-14T15:32:54.787Z,46.32
2023-05-14T15:35:22.700Z,46.15
2023-05-14T15:37:50.462Z,46.32
2023-05-14T15:40:23.640Z,46.65
2023-05-14T15:42:51.196Z,46.61
2023-05-14T15:45:18.660Z,46.67
2023-05-14T15:47:46.156Z,46.84
2023-05-14T15:50:13.575Z,46.35
2023-05-14T15:52:41.439Z,46.60
2023-05-14T15:55:09.790Z,46.51
2023-05-14T15:57:38.585Z,46.55
2023-05-14T16:00:10.388Z,46.20
2023-05-14T16:02:38.023Z,46.34
2023-05-14T16:05:06.374Z,46.81
2023-05-14T16:07:34.168Z,46.47
2023-05-14T16:10:01.594Z,46.72
2023-05-14T16:12:29.024Z,48.00
2023-05-14T16:14:58.033Z,48.28
2023-05-14T16:17:25.493Z,46.60
2023-05-14T16:19:55.326Z,46.56
2023-05-14T16:22:23.603Z,46.23
2023-05-14T16:24:51.010Z,47.67
2023-05-14T16:27:19.342Z,48.33
2023-05-14T16:29:46.761Z,49.41
2023-05-14T16:32:15.558Z,50.42
2023-05-14T16:34:47.357Z,50.44
2023-05-14T16:37:15.076Z,51.71
2023-05-14T16:39:42.459Z,51.37
2023-05-14T16:42:09.853Z,53.49
2023-05-14T16:44:37.229Z,52.96
2023-05-14T16:47:05.058Z,52.05
2023-05-14T16:49:33.764Z,52.62
2023-05-14T16:52:01.151Z,52.45
2023-05-14T16:54:28.654Z,52.14
2023-05-14T16:56:56.341Z,52.64
2023-05-14T16:59:23.765Z,51.78
2023-05-14T17:01:51.185Z,52.20
2023-05-14T17:04:18.690Z,52.41
2023-05-14T17:06:48.102Z,52.27
2023-05-14T17:09:16.533Z,51.98
2023-05-14T17:11:44.136Z,52.50
2023-05-14T17:14:11.838Z,52.57
2023-05-14T17:16:40.509Z,53.08
2023-05-14T17:19:08.367Z,53.66
2023-05-14T17:21:35.914Z,53.39
2023-05-14T17:24:04.795Z,54.01
2023-05-14T17:26:32.278Z,55.41
2023-05-14T17:28:59.663Z,56.83
2023-05-14T17:31:27.090Z,57.65
2023-05-14T17:33:54.525Z,57.59
2023-05-14T17:36:22.089Z,59.13
2023-05-14T17:38:49.524Z,59.81
2023-05-14T17:41:18.221Z,60.34
2023-05-14T17:43:45.619Z,60.97
2023-05-14T17:46:13.068Z,62.03
2023-05-14T17:48:42.126Z,62.27
2023-05-14T17:51:09.534Z,61.15
2023-05-14T17:53:36.948Z,61.67
2023-05-14T17:56:04.825Z,61.55
2023-05-14T17:58:33.521Z,61.93
2023-05-14T18:01:00.931Z,61.89
2023-05-14T18:03:28.492Z,62.09
2023-05-14T18:05:56.151Z,62.84
2023-05-14T18:08:23.592Z,62.68
2023-05-14T18:10:50.965Z,62.74
2023-05-14T18:13:18.363Z,63.29
2023-05-14T18:15:47.318Z,63.17
2023-05-14T18:18:17.051Z,63.49
2023-05-14T18:20:44.440Z,63.35
2023-05-14T18:23:13.140Z,64.38
2023-05-14T18:25:40.491Z,65.25
2023-05-14T18:28:08.058Z,65.11
2023-05-14T18:30:35.630Z,65.83
2023-05-14T18:33:04.575Z,66.15
2023-05-14T18:35:32.164Z,67.15
2023-05-14T18:37:59.618Z,67.47
2023-05-14T18:40:27.065Z,67.97
2023-05-14T18:42:54.430Z,69.00
2023-05-14T18:45:23.971Z,68.74
2023-05-14T18:47:51.699Z,70.33
2023-05-14T18:50:20.437Z,69.71
2023-05-14T18:52:49.146Z,69.06
2023-05-14T18:55:16.632Z,68.57
2023-05-14T18:57:44.091Z,67.74
2023-05-14T19:00:15.275Z,67.64
2023-05-14T19:02:42.784Z,66.96
2023-05-14T19:05:10.737Z,67.36
2023-05-14T19:07:40.700Z,66.81
2023-05-14T19:10:09.475Z,66.34
2023-05-14T19:12:36.897Z,66.04
2023-05-14T19:15:09.131Z,65.76
2023-05-14T19:17:37.347Z,66.06
2023-05-14T19:20:06.340Z,66.20
2023-05-14T19:22:33.807Z,66.27
2023-05-14T19:25:05.096Z,65.56
2023-05-14T19:27:33.835Z,66.00
2023-05-14T19:30:01.615Z,66.82
2023-05-14T19:32:29.211Z,66.57
2023-05-14T19:34:56.589Z,66.80
2023-05-14T19:37:24.064Z,67.29
2023-05-14T19:39:51.444Z,68.23
2023-05-14T19:42:20.187Z,67.92
2023-05-14T19:44:47.586Z,68.04
2023-05-14T19:47:15.072Z,67.47
2023-05-14T19:49:42.521Z,68.15
2023-05-14T19:52:11.273Z,68.53
2023-05-14T19:54:38.632Z,69.06
2023-05-14T19:57:06.795Z,68.84
2023-05-14T19:59:35.573Z,69.23
2023-05-14T20:02:04.569Z,69.46
2023-05-14T20:04:33.101Z,69.83
2023-05-14T20:07:00.763Z,70.88
2023-05-14T20:09:28.133Z,70.80
2023-05-14T20:11:55.649Z,70.75
2023-05-14T20:14:23.030Z,70.21
2023-05-14T20:16:51.820Z,69.83
2023-05-14T20:19:20.505Z,69.59
2023-05-14T20:21:48.516Z,69.90
2023-05-14T20:24:15.878Z,70.81
2023-05-14T20:26:47.319Z,70.82
2023-05-14T20:29:15.198Z,72.65
2023-05-14T20:31:42.567Z,72.98
2023-05-14T20:34:11.292Z,72.80
2023-05-14T20:36:38.716Z,72.45
2023-05-14T20:39:06.395Z,72.65
2023-05-14T20:41:33.780Z,72.57
2023-05-14T20:44:01.168Z,72.61
2023-05-14T21:01:00.856Z,72.92
2023-05-14T21:03:30.269Z,73.01
2023-05-14T21:05:57.836Z,73.15
2023-05-14T21:08:25.208Z,73.67
2023-05-14T21:10:52.591Z,73.92
2023-05-14T21:13:19.973Z,73.25
2023-05-14T21:15:47.430Z,73.51
2023-05-14T21:18:16.137Z,73.86
2023-05-14T21:20:43.571Z,74.16
2023-05-14T21:23:10.965Z,75.11
2023-05-14T21:25:38.353Z,75.31
2023-05-14T21:28:05.943Z,75.83
2023-05-14T21:30:33.381Z,77.24
2023-05-14T21:33:00.906Z,77.57
2023-05-14T21:35:29.665Z,78.56
2023-05-14T21:37:57.090Z,79.98
2023-05-14T21:40:24.465Z,79.70
2023-05-14T21:42:51.841Z,81.01
2023-05-14T21:45:20.158Z,79.97
2023-05-14T21:47:48.593Z,79.62
2023-05-14T21:50:16.092Z,79.79
2023-05-14T21:52:44.885Z,79.71
2023-05-14T21:55:12.301Z,79.48
2023-05-14T21:57:39.732Z,79.43
2023-05-14T22:00:12.910Z,79.56
2023-05-14T22:02:40.685Z,79.71
2023-05-14T22:05:08.613Z,78.80
2023-05-14T22:07:35.999Z,79.13
2023-05-14T22:10:05.078Z,79.12
2023-05-14T22:12:32.473Z,79.43
2023-05-14T22:14:59.908Z,80.18
2023-05-14T22:17:28.021Z,79.73
2023-05-14T22:19:55.464Z,80.27
2023-05-14T22:22:22.860Z,81.34
2023-05-14T22:24:50.291Z,81.35
2023-05-14T22:27:19.364Z,82.21
2023-05-14T22:29:46.785Z,84.13
2023-05-14T22:32:14.195Z,81.22
2023-05-14T22:34:41.635Z,80.21
2023-05-14T22:37:09.032Z,80.80
2023-05-14T22:39:36.459Z,83.85
2023-05-14T22:42:03.870Z,82.25
2023-05-14T22:44:32.917Z,81.46
2023-05-14T22:47:00.405Z,81.35
2023-05-14T22:49:27.796Z,81.46
2023-05-14T22:51:55.486Z,81.28
2023-05-14T22:54:22.864Z,80.12
2023-05-14T22:56:51.224Z,80.92
2023-05-14T22:59:18.591Z,82.01
2023-05-14T23:01:47.438Z,81.48
2023-05-14T23:04:14.865Z,81.54
2023-05-14T23:06:42.399Z,80.99
2023-05-14T23:09:09.783Z,79.99
2023-05-14T23:11:37.164Z,79.17
2023-05-14T23:14:04.551Z,78.23
2023-05-14T23:16:32.664Z,78.91
2023-05-14T23:19:01.601Z,78.36
2023-05-14T23:21:29.132Z,78.02
2023-05-14T23:23:56.489Z,78.02
2023-05-14T23:26:23.891Z,78.23
2023-05-14T23:28:51.575Z,78.31
2023-05-14T23:31:19.059Z,78.67
2023-05-14T23:33:46.623Z,79.48
2023-05-14T23:36:15.904Z,80.46
2023-05-14T23:38:44.260Z,80.68
2023-05-14T23:41:11.645Z,80.54
2023-05-14T23:43:39.080Z,80.77
2023-05-14T23:46:06.761Z,82.13
2023-05-14T23:48:34.270Z,81.70
2023-05-14T23:51:01.722Z,83.58
2023-05-14T23:53:30.475Z,84.05
2023-05-14T23:55:58.055Z,85.21
2023-05-14T23:58:26.277Z,85.02
